createdAt,value
2023-05-10T00:00:46.324Z,16.77
2023-05-10T00:03:12.885Z,16.70
2023-05-10T00:05:39.493Z,16.81
2023-05-10T00:08:06.147Z,16.75
2023-05-10T00:10:32.587Z,16.55
2023-05-10T00:12:59.212Z,16.45
2023-05-10T00:15:25.791Z,16.76
2023-05-10T00:17:52.281Z,16.74
2023-05-10T00:20:19.171Z,16.69
2023-05-10T00:22:45.913Z,16.66
2023-05-10T00:25:12.706Z,16.59
2023-05-10T00:27:41.661Z,16.60
2023-05-10T00:30:10.708Z,16.47
2023-05-10T00:32:37.358Z,16.57
2023-05-10T00:35:03.956Z,16.54
2023-05-10T00:37:30.838Z,16.45
2023-05-10T00:39:57.227Z,16.49
2023-05-10T00:42:23.750Z,16.39
2023-05-10T00:44:50.142Z,16.36
2023-05-10T00:47:17.673Z,16.31
2023-05-10T00:49:44.701Z,16.18
2023-05-10T00:52:11.204Z,16.28
2023-05-10T00:54:37.956Z,16.22
2023-05-10T00:57:04.732Z,16.17
2023-05-10T00:59:31.637Z,16.14
2023-05-10T01:01:58.889Z,15.69
2023-05-10T01:04:26.539Z,16.03
2023-05-10T01:06:54.492Z,15.99
2023-05-10T01:09:22.602Z,15.95
2023-05-10T01:11:49.835Z,15.93
2023-05-10T01:14:19.719Z,15.82
2023-05-10T01:16:47.919Z,15.83
2023-05-10T01:19:23.935Z,15.87
2023-05-10T01:22:19.487Z,15.87
2023-05-10T01:25:08.942Z,15.78
2023-05-10T01:27:35.351Z,15.74
2023-05-10T01:30:32.312Z,15.73
2023-05-10T01:33:02.615Z,15.65
2023-05-10T01:35:40.931Z,15.62
2023-05-10T01:38:26.195Z,15.56
2023-05-10T01:41:01.874Z,15.51
2023-05-10T01:43:32.763Z,15.46
2023-05-10T01:46:11.325Z,15.40
2023-05-10T01:48:48.080Z,15.40
2023-05-10T01:51:20.621Z,15.37
2023-05-10T01:53:49.656Z,15.35
2023-05-10T01:56:17.023Z,15.31
2023-05-10T01:58:48.250Z,15.18
2023-05-10T02:01:15.858Z,15.28
2023-05-10T02:03:44.706Z,15.26
2023-05-10T02:06:13.784Z,15.00
2023-05-10T02:08:42.095Z,15.06
2023-05-10T02:11:12.164Z,14.86
2023-05-10T02:13:40.348Z,15.03
2023-05-10T02:16:08.260Z,14.99
2023-05-10T02:18:36.910Z,15.02
2023-05-10T02:21:04.255Z,14.99
2023-05-10T02:23:32.153Z,14.83
2023-05-10T02:25:59.909Z,14.63
2023-05-10T02:28:27.484Z,14.90
2023-05-10T02:30:55.355Z,14.80
2023-05-10T02:33:23.397Z,14.85
2023-05-10T02:35:51.860Z,14.83
2023-05-10T02:38:21.147Z,14.83
2023-05-10T02:40:48.574Z,14.81
2023-05-10T02:43:18.020Z,14.81
2023-05-10T02:45:47.891Z,14.79
2023-05-10T02:48:14.570Z,14.76
2023-05-10T02:50:45.440Z,14.74
2023-05-10T02:53:16.028Z,14.72
2023-05-10T02:55:46.001Z,14.70
2023-05-10T02:58:12.500Z,14.59
2023-05-10T03:00:38.928Z,14.70
2023-05-10T03:03:05.419Z,14.69
2023-05-10T03:05:32.169Z,14.68
2023-05-10T03:07:58.690Z,14.66
2023-05-10T03:10:30.364Z,14.69
2023-05-10T03:13:08.673Z,14.68
2023-05-10T03:15:59.132Z,14.71
2023-05-10T03:18:40.754Z,14.70
2023-05-10T03:21:09.940Z,14.71
2023-05-10T03:23:48.785Z,14.35
2023-05-10T03:26:21.467Z,14.73
2023-05-10T03:28:49.309Z,14.74
2023-05-10T03:31:16.413Z,14.68
2023-05-10T03:33:50.476Z,14.76
2023-05-10T03:36:17.157Z,14.77
2023-05-10T03:38:43.655Z,14.71
2023-05-10T03:41:10.468Z,14.41
2023-05-10T03:43:37.543Z,14.75
2023-05-10T03:46:04.599Z,14.55
2023-05-10T03:48:31.664Z,14.77
2023-05-10T03:50:58.160Z,14.79
2023-05-10T03:53:25.105Z,14.75
2023-05-10T03:55:51.676Z,14.59
2023-05-10T03:58:18.107Z,14.79
2023-05-10T04:00:46.155Z,14.79
2023-05-10T04:03:13.877Z,14.76
2023-05-10T04:05:40.952Z,14.76
2023-05-10T04:08:07.493Z,14.79
2023-05-10T04:10:33.932Z,14.80
2023-05-10T04:13:00.766Z,14.81
2023-05-10T04:15:27.259Z,14.85
2023-05-10T04:17:54.597Z,14.63
2023-05-10T04:20:21.366Z,14.89
2023-05-10T04:22:47.855Z,14.82
2023-05-10T04:25:14.618Z,14.93
2023-05-10T04:27:41.069Z,14.82
2023-05-10T04:30:08.334Z,14.97
2023-05-10T04:32:34.813Z,14.98
2023-05-10T04:35:03.878Z,14.99
2023-05-10T04:37:30.389Z,15.02
2023-05-10T04:39:56.794Z,15.01
2023-05-10T04:42:23.225Z,15.05
2023-05-10T04:44:49.590Z,15.06
2023-05-10T04:47:17.194Z,15.07
2023-05-10T04:49:43.621Z,15.03
2023-05-10T04:52:10.019Z,15.10
2023-05-10T04:54:36.596Z,15.14
2023-05-10T04:57:03.143Z,14.88
2023-05-10T04:59:29.764Z,15.14
2023-05-10T05:01:56.176Z,15.19
2023-05-10T05:04:24.401Z,15.23
2023-05-10T05:06:53.671Z,15.24
2023-05-10T05:09:20.799Z,15.34
2023-05-10T05:11:47.252Z,15.20
2023-05-10T05:14:13.745Z,15.38
2023-05-10T05:16:40.445Z,15.43
2023-05-10T05:19:07.613Z,15.47
2023-05-10T05:21:34.258Z,15.53
2023-05-10T05:24:00.948Z,15.58
2023-05-10T05:26:27.628Z,15.60
2023-05-10T05:28:55.472Z,15.67
2023-05-10T05:31:22.211Z,15.69
2023-05-10T05:33:48.737Z,15.83
2023-05-10T05:36:15.262Z,15.92
2023-05-10T05:38:41.824Z,15.85
2023-05-10T05:41:08.270Z,16.09
2023-05-10T05:43:37.451Z,16.23
2023-05-10T05:46:04.939Z,16.29
2023-05-10T05:48:31.923Z,16.44
2023-05-10T05:50:58.803Z,16.46
2023-05-10T05:53:25.317Z,16.59
2023-05-10T05:55:56.252Z,16.68
2023-05-10T05:58:23.495Z,16.73
2023-05-10T06:00:53.602Z,16.68
2023-05-10T06:03:20.411Z,16.91
2023-05-10T06:05:47.422Z,17.06
2023-05-10T06:08:14.329Z,17.09
2023-05-10T06:10:40.723Z,17.19
2023-05-10T06:13:07.202Z,17.32
2023-05-10T06:15:33.703Z,17.32
2023-05-10T06:18:00.342Z,17.49
2023-05-10T06:20:26.959Z,17.54
2023-05-10T06:22:53.586Z,17.56
2023-05-10T06:25:20.054Z,17.58
2023-05-10T06:27:53.451Z,17.41
2023-05-10T06:30:21.146Z,17.81
2023-05-10T06:32:47.714Z,17.76
2023-05-10T06:35:14.696Z,18.05
2023-05-10T06:37:41.165Z,18.13
2023-05-10T06:40:08.487Z,18.24
2023-05-10T06:42:35.093Z,18.33
2023-05-10T06:45:01.635Z,18.42
2023-05-10T06:47:28.124Z,18.28
2023-05-10T06:49:54.668Z,18.49
2023-05-10T06:52:21.079Z,18.65
2023-05-10T06:54:47.568Z,18.72
2023-05-10T06:57:27.638Z,18.74
2023-05-10T06:59:57.612Z,18.92
2023-05-10T07:02:24.430Z,18.97
2023-05-10T07:04:52.720Z,19.13
2023-05-10T07:07:19.838Z,19.20
2023-05-10T07:09:46.686Z,19.45
2023-05-10T07:12:15.430Z,19.69
2023-05-10T07:14:43.265Z,19.90
2023-05-10T07:17:10.125Z,20.04
2023-05-10T07:19:36.914Z,20.15
2023-05-10T07:22:03.597Z,20.21
2023-05-10T07:24:30.810Z,20.25
2023-05-10T07:26:57.323Z,20.23
2023-05-10T07:29:23.774Z,20.23
2023-05-10T07:31:50.200Z,20.23
2023-05-10T07:34:16.853Z,20.27
2023-05-10T07:36:43.458Z,20.25
2023-05-10T07:39:09.967Z,20.29
2023-05-10T07:41:38.495Z,20.36
2023-05-10T07:44:05.420Z,20.42
2023-05-10T07:46:32.140Z,20.19
2023-05-10T07:48:58.572Z,20.46
2023-05-10T07:51:25.108Z,20.45
2023-05-10T07:53:51.566Z,20.29
2023-05-10T07:56:28.099Z,20.57
2023-05-10T07:58:55.521Z,20.59
2023-05-10T08:01:22.387Z,20.52
2023-05-10T08:03:49.797Z,20.60
2023-05-10T08:06:18.611Z,20.82
2023-05-10T08:08:50.091Z,20.76
2023-05-10T08:11:18.460Z,20.66
2023-05-10T08:13:45.841Z,21.00
2023-05-10T08:16:12.317Z,21.03
2023-05-10T08:18:39.539Z,21.08
2023-05-10T08:21:06.847Z,20.84
2023-05-10T08:23:33.873Z,21.15
2023-05-10T08:26:01.122Z,21.17
2023-05-10T08:28:28.063Z,21.15
2023-05-10T08:30:54.826Z,21.15
2023-05-10T08:33:21.400Z,21.20
2023-05-10T08:35:47.985Z,21.10
2023-05-10T08:38:16.384Z,21.14
2023-05-10T08:40:44.283Z,21.00
2023-05-10T08:43:12.947Z,21.04
2023-05-10T08:45:46.483Z,21.12
2023-05-10T08:48:12.933Z,20.96
2023-05-10T08:50:41.431Z,20.85
2023-05-10T08:53:12.002Z,21.06
2023-05-10T08:55:39.872Z,20.84
2023-05-10T08:58:07.427Z,20.89
2023-05-10T09:00:34.914Z,20.65
2023-05-10T09:03:02.579Z,20.84
2023-05-10T09:05:29.236Z,20.71
2023-05-10T09:07:55.788Z,20.77
2023-05-10T09:10:23.697Z,20.55
2023-05-10T09:12:51.691Z,20.75
2023-05-10T09:15:20.301Z,20.76
2023-05-10T09:17:47.210Z,20.77
2023-05-10T09:20:13.810Z,20.81
2023-05-10T09:22:41.065Z,20.75
2023-05-10T09:25:13.387Z,20.74
2023-05-10T09:27:40.972Z,20.71
2023-05-10T09:30:08.713Z,20.71
2023-05-10T09:32:39.325Z,20.64
2023-05-10T09:35:17.042Z,20.69
2023-05-10T09:37:46.904Z,20.49
2023-05-10T09:40:21.127Z,20.40
2023-05-10T09:43:03.791Z,20.54
2023-05-10T09:45:31.892Z,20.32
2023-05-10T09:48:00.006Z,20.25
2023-05-10T09:50:27.553Z,19.93
2023-05-10T09:52:58.743Z,19.81
2023-05-10T09:55:27.880Z,19.68
2023-05-10T09:58:02.229Z,19.42
2023-05-10T10:00:35.097Z,19.19
2023-05-10T10:03:02.995Z,18.94
2023-05-10T10:05:34.076Z,18.61
2023-05-10T10:08:02.265Z,18.48
2023-05-10T10:10:29.274Z,18.45
2023-05-10T10:12:56.577Z,18.26
2023-05-10T10:15:26.979Z,17.87
2023-05-10T10:17:54.367Z,17.88
2023-05-10T10:20:23.120Z,17.62
2023-05-10T10:22:49.800Z,17.47
2023-05-10T10:25:18.708Z,17.29
2023-05-10T10:27:54.690Z,17.18
2023-05-10T10:30:44.774Z,16.99
2023-05-10T10:33:30.791Z,16.94
2023-05-10T10:36:00.939Z,16.83
2023-05-10T10:38:37.898Z,16.75
2023-05-10T10:41:11.833Z,16.46
2023-05-10T10:43:38.396Z,16.62
2023-05-10T10:46:18.459Z,16.63
2023-05-10T10:48:50.707Z,16.63
2023-05-10T10:51:17.556Z,16.61
2023-05-10T10:53:44.414Z,16.39
2023-05-10T10:56:16.064Z,16.66
2023-05-10T10:58:49.728Z,16.24
2023-05-10T11:01:18.216Z,16.56
2023-05-10T11:04:04.966Z,16.71
2023-05-10T11:06:33.357Z,16.56
2023-05-10T11:09:00.669Z,16.60
2023-05-10T11:11:27.231Z,16.34
2023-05-10T11:13:53.736Z,16.54
2023-05-10T11:16:21.568Z,16.46
2023-05-10T11:19:14.889Z,16.60
2023-05-10T11:21:47.523Z,16.61
2023-05-10T11:24:28.193Z,16.60
2023-05-10T11:26:54.882Z,16.64
2023-05-10T11:29:21.467Z,16.61
2023-05-10T11:31:49.382Z,16.60
2023-05-10T11:34:34.306Z,16.62
2023-05-10T11:37:03.879Z,16.56
2023-05-10T11:39:32.509Z,16.58
2023-05-10T11:41:59.252Z,16.61
2023-05-10T11:44:31.949Z,16.49
2023-05-10T11:47:02.551Z,16.68
2023-05-10T11:49:29.217Z,16.68
2023-05-10T11:52:08.179Z,16.71
2023-05-10T11:54:36.072Z,16.67
2023-05-10T11:57:02.855Z,16.69
2023-05-10T11:59:29.357Z,16.52
2023-05-10T12:01:56.200Z,16.47
2023-05-10T12:04:22.957Z,16.68
2023-05-10T12:06:49.571Z,16.74
2023-05-10T12:09:17.632Z,16.77
2023-05-10T12:11:45.858Z,16.81
2023-05-10T12:14:12.484Z,16.51
2023-05-10T12:16:39.399Z,16.81
2023-05-10T12:19:09.144Z,16.87
2023-05-10T12:21:35.706Z,16.82
2023-05-10T12:24:06.134Z,17.00
2023-05-10T12:26:33.016Z,16.90
2023-05-10T12:29:20.988Z,17.19
2023-05-10T12:32:01.248Z,17.04
2023-05-10T12:34:39.813Z,17.48
2023-05-10T12:37:06.416Z,17.25
2023-05-10T12:39:45.836Z,17.44
2023-05-10T12:42:12.688Z,17.14
2023-05-10T12:44:39.982Z,17.49
2023-05-10T12:47:06.863Z,17.55
2023-05-10T12:49:33.380Z,17.64
2023-05-10T12:51:59.859Z,17.69
2023-05-10T12:54:26.723Z,17.83
2023-05-10T12:56:53.230Z,17.93
2023-05-10T12:59:19.636Z,17.89
2023-05-10T13:01:46.205Z,18.17
2023-05-10T13:04:12.744Z,18.04
2023-05-10T13:06:39.215Z,18.46
2023-05-10T13:09:05.681Z,18.70
2023-05-10T13:11:32.182Z,18.80
2023-05-10T13:13:58.923Z,19.03
2023-05-10T13:16:25.583Z,19.07
2023-05-10T13:18:55.455Z,19.06
2023-05-10T13:21:21.994Z,19.03
2023-05-10T13:23:48.483Z,19.48
2023-05-10T13:26:15.056Z,19.57
2023-05-10T13:28:41.585Z,19.65
2023-05-10T13:31:08.609Z,19.69
2023-05-10T13:33:35.038Z,19.80
2023-05-10T13:36:01.452Z,19.79
2023-05-10T13:38:27.844Z,19.68
2023-05-10T13:40:54.374Z,19.91
2023-05-10T13:43:20.864Z,19.81
2023-05-10T13:45:47.385Z,19.78
2023-05-10T13:48:13.795Z,19.84
2023-05-10T13:50:40.231Z,19.95
2023-05-10T13:53:06.657Z,19.96
2023-05-10T13:55:33.320Z,19.86
2023-05-10T13:57:59.840Z,19.99
2023-05-10T14:00:26.209Z,20.01
2023-05-10T14:02:52.660Z,20.20
2023-05-10T14:05:22.310Z,20.07
2023-05-10T14:07:52.270Z,20.47
2023-05-10T14:10:18.786Z,20.73
2023-05-10T14:12:45.246Z,21.03
2023-05-10T14:15:12.553Z,21.18
2023-05-10T14:17:39.090Z,21.21
2023-05-10T14:20:08.610Z,21.04
2023-05-10T14:22:35.409Z,21.21
2023-05-10T14:25:02.038Z,21.12
2023-05-10T14:27:28.530Z,21.03
2023-05-10T14:29:55.031Z,20.89
2023-05-10T14:32:21.534Z,20.83
2023-05-10T14:34:48.106Z,20.88
2023-05-10T14:37:14.919Z,20.94
2023-05-10T14:39:47.997Z,20.97
2023-05-10T14:42:14.365Z,21.07
2023-05-10T14:44:40.732Z,20.79
2023-05-10T14:47:07.779Z,21.15
2023-05-10T14:49:34.482Z,21.19
2023-05-10T14:52:01.219Z,21.19
2023-05-10T14:54:28.320Z,21.01
2023-05-10T14:56:54.801Z,21.16
2023-05-10T14:59:21.590Z,21.29
2023-05-10T15:01:48.548Z,21.45
2023-05-10T15:04:17.324Z,21.51
2023-05-10T15:06:44.243Z,21.62
2023-05-10T15:09:10.653Z,21.68
2023-05-10T15:11:37.235Z,21.69
2023-05-10T15:14:03.852Z,21.44
2023-05-10T15:16:30.781Z,21.45
2023-05-10T15:18:58.841Z,21.63
2023-05-10T15:21:25.351Z,21.61
2023-05-10T15:23:51.811Z,21.55
2023-05-10T15:26:18.271Z,21.52
2023-05-10T15:28:44.875Z,21.32
2023-05-10T15:31:11.946Z,21.44
2023-05-10T15:33:39.043Z,21.34
2023-05-10T15:36:05.765Z,21.15
2023-05-10T15:38:32.437Z,21.25
2023-05-10T15:40:59.250Z,21.26
2023-05-10T15:43:25.678Z,21.25
2023-05-10T15:45:52.211Z,21.16
2023-05-10T15:48:18.683Z,21.01
2023-05-10T15:50:45.209Z,20.83
2023-05-10T15:53:12.116Z,20.92
2023-05-10T15:55:38.649Z,20.68
2023-05-10T15:58:05.038Z,20.26
2023-05-10T16:00:31.415Z,20.43
2023-05-10T16:02:58.182Z,20.13
2023-05-10T16:05:24.728Z,19.82
2023-05-10T16:07:51.222Z,19.44
2023-05-10T16:10:17.655Z,19.06
2023-05-10T16:12:44.070Z,18.84
2023-05-10T16:15:10.809Z,18.49
2023-05-10T16:17:37.438Z,18.53
2023-05-10T16:20:05.220Z,18.16
2023-05-10T16:22:31.714Z,18.27
2023-05-10T16:24:58.876Z,18.20
2023-05-10T16:27:28.559Z,18.13
2023-05-10T16:29:54.948Z,17.95
2023-05-10T16:32:21.483Z,18.05
2023-05-10T16:34:47.936Z,17.98
2023-05-10T16:37:14.433Z,17.97
2023-05-10T16:39:40.927Z,17.94
2023-05-10T16:42:07.634Z,17.87
2023-05-10T16:44:34.211Z,17.91
2023-05-10T16:47:00.862Z,17.88
2023-05-10T16:49:27.337Z,17.88
2023-05-10T16:51:53.770Z,17.87
2023-05-10T16:54:21.797Z,17.77
2023-05-10T16:56:48.249Z,17.83
2023-05-10T16:59:14.711Z,17.85
2023-05-10T17:01:41.465Z,17.80
2023-05-10T17:04:08.104Z,17.86
2023-05-10T17:06:36.640Z,17.51
2023-05-10T17:09:03.930Z,17.87
2023-05-10T17:11:30.299Z,17.89
2023-05-10T17:13:57.342Z,17.88
2023-05-10T17:16:23.777Z,17.85
2023-05-10T17:18:50.332Z,17.72
2023-05-10T17:21:17.144Z,17.75
2023-05-10T17:23:43.773Z,17.53
2023-05-10T17:26:10.486Z,17.50
2023-05-10T17:28:36.903Z,17.63
2023-05-10T17:31:03.345Z,17.48
2023-05-10T17:33:29.787Z,17.55
2023-05-10T17:35:56.682Z,17.27
2023-05-10T17:38:23.067Z,17.21
2023-05-10T17:40:49.581Z,17.09
2023-05-10T17:43:16.139Z,16.92
2023-05-10T17:45:44.011Z,16.75
2023-05-10T17:48:11.297Z,16.48
2023-05-10T17:50:37.969Z,16.45
2023-05-10T17:53:04.347Z,16.47
2023-05-10T17:55:31.160Z,16.38
2023-05-10T17:58:02.321Z,16.33
2023-05-10T18:00:28.749Z,16.21
2023-05-10T18:02:55.278Z,16.21
2023-05-10T18:05:22.119Z,16.17
2023-05-10T18:07:48.948Z,16.06
2023-05-10T18:10:15.464Z,15.89
2023-05-10T18:12:41.943Z,15.95
2023-05-10T18:15:08.861Z,16.05
2023-05-10T18:17:35.379Z,16.01
2023-05-10T18:20:02.223Z,15.93
2023-05-10T18:22:28.692Z,15.80
2023-05-10T18:24:55.542Z,15.82
2023-05-10T18:27:22.328Z,15.72
2023-05-10T18:29:48.693Z,15.76
2023-05-10T18:32:15.425Z,15.63
2023-05-10T18:34:41.830Z,15.77
2023-05-10T18:37:09.538Z,15.76
2023-05-10T18:39:39.149Z,15.75
2023-05-10T18:42:06.061Z,15.73
2023-05-10T18:44:32.624Z,15.69
2023-05-10T18:46:59.331Z,15.69
2023-05-10T18:49:26.687Z,15.53
2023-05-10T18:51:53.448Z,15.45
2023-05-10T18:54:20.548Z,15.65
2023-05-10T18:56:47.262Z,15.54
2023-05-10T18:59:13.906Z,15.65
2023-05-10T19:01:41.534Z,15.58
2023-05-10T19:04:08.885Z,15.61
2023-05-10T19:06:36.119Z,15.34
2023-05-10T19:09:03.191Z,15.51
2023-05-10T19:11:32.138Z,15.47
2023-05-10T19:13:59.033Z,15.21
2023-05-10T19:16:28.663Z,15.38
2023-05-10T19:18:56.580Z,15.33
2023-05-10T19:21:23.086Z,15.26
2023-05-10T19:23:49.603Z,15.16
2023-05-10T19:26:16.083Z,15.07
2023-05-10T19:28:42.471Z,15.18
2023-05-10T19:31:08.948Z,15.08
2023-05-10T19:33:42.119Z,15.07
2023-05-10T19:36:09.238Z,14.95
2023-05-10T19:38:38.063Z,14.42
2023-05-10T19:41:04.696Z,14.93
2023-05-10T19:43:34.584Z,14.88
2023-05-10T19:46:02.053Z,14.91
2023-05-10T19:48:28.800Z,14.87
2023-05-10T19:51:01.474Z,14.85
2023-05-10T19:53:28.149Z,14.76
2023-05-10T19:55:54.948Z,14.79
2023-05-10T19:58:21.503Z,14.78
2023-05-10T20:00:48.028Z,14.76
2023-05-10T20:03:14.535Z,14.74
2023-05-10T20:05:41.067Z,14.65
2023-05-10T20:08:08.394Z,14.65
2023-05-10T20:10:34.820Z,14.63
2023-05-10T20:13:01.216Z,14.69
2023-05-10T20:15:29.384Z,14.69
2023-05-10T20:17:55.853Z,14.63
2023-05-10T20:20:22.679Z,14.61
2023-05-10T20:22:49.782Z,14.64
2023-05-10T20:25:17.959Z,14.63
2023-05-10T20:27:44.517Z,14.55
2023-05-10T20:30:11.404Z,14.62
2023-05-10T20:32:38.242Z,14.36
2023-05-10T20:35:05.854Z,14.60
2023-05-10T20:37:32.303Z,14.58
2023-05-10T20:39:58.797Z,14.57
2023-05-10T20:42:25.944Z,14.53
2023-05-10T20:44:52.696Z,14.42
2023-05-10T20:47:19.989Z,14.49
2023-05-10T20:49:46.607Z,14.48
2023-05-10T20:52:16.242Z,14.45
2023-05-10T20:54:43.047Z,14.41
2023-05-10T20:57:12.598Z,14.35
2023-05-10T20:59:39.630Z,14.33
2023-05-10T21:02:06.842Z,14.28
2023-05-10T21:04:33.673Z,14.26
2023-05-10T21:07:03.498Z,14.18
2023-05-10T21:09:30.147Z,14.20
2023-05-10T21:11:58.166Z,13.98
2023-05-10T21:14:25.095Z,14.11
2023-05-10T21:16:52.038Z,14.12
2023-05-10T21:19:19.206Z,14.17
2023-05-10T21:21:46.497Z,14.16
2023-05-10T21:24:13.992Z,13.96
2023-05-10T21:26:40.943Z,14.13
2023-05-10T21:29:07.846Z,14.23
2023-05-10T21:31:34.820Z,14.08
2023-05-10T21:34:01.631Z,14.17
2023-05-10T21:36:28.466Z,14.19
2023-05-10T21:38:55.044Z,14.22
2023-05-10T21:41:22.048Z,14.24
2023-05-10T21:43:48.939Z,14.23
2023-05-10T21:46:17.959Z,14.23
2023-05-10T21:48:45.195Z,14.22
2023-05-10T21:51:12.284Z,14.16
2023-05-10T21:53:39.223Z,14.20
2023-05-10T21:56:07.292Z,14.20
2023-05-10T21:58:34.130Z,13.83
2023-05-10T22:01:04.276Z,13.94
2023-05-10T22:03:31.725Z,14.20
2023-05-10T22:05:58.639Z,13.85
2023-05-10T22:08:25.741Z,14.19
2023-05-10T22:10:52.899Z,14.17
2023-05-10T22:13:19.548Z,14.22
2023-05-10T22:15:46.375Z,14.12
2023-05-10T22:18:13.323Z,14.23
2023-05-10T22:20:43.546Z,14.24
2023-05-10T22:23:10.549Z,14.37
2023-05-10T22:25:37.299Z,14.27
2023-05-10T22:28:04.765Z,14.27
2023-05-10T22:30:33.073Z,14.01
2023-05-10T22:33:00.827Z,14.25
2023-05-10T22:35:28.166Z,14.26
2023-05-10T22:37:54.574Z,14.20
2023-05-10T22:40:21.507Z,14.22
2023-05-10T22:42:47.971Z,14.22
2023-05-10T22:45:14.407Z,14.16
2023-05-10T22:47:41.081Z,14.15
2023-05-10T22:50:08.709Z,14.18
2023-05-10T22:52:35.356Z,14.13
2023-05-10T22:55:01.931Z,14.04
2023-05-10T22:57:28.465Z,13.99
2023-05-10T22:59:54.896Z,14.03
2023-05-10T23:02:21.404Z,14.09
2023-05-10T23:04:48.115Z,14.11
2023-05-10T23:07:14.584Z,13.94
2023-05-10T23:09:41.120Z,14.08
2023-05-10T23:12:07.689Z,14.07
2023-05-10T23:14:34.171Z,14.06
2023-05-10T23:17:00.793Z,13.64
2023-05-10T23:19:27.664Z,14.05
2023-05-10T23:21:54.111Z,14.05
2023-05-10T23:24:20.604Z,13.94
2023-05-10T23:26:47.298Z,14.02
2023-05-10T23:29:13.904Z,14.00
2023-05-10T23:31:45.272Z,13.93
2023-05-10T23:34:12.467Z,13.85
2023-05-10T23:36:39.305Z,13.99
2023-05-10T23:39:06.540Z,13.98
2023-05-10T23:41:33.000Z,13.97
2023-05-10T23:44:01.396Z,13.77
2023-05-10T23:46:28.161Z,13.97
2023-05-10T23:48:54.610Z,13.97
2023-05-10T23:51:21.138Z,13.91
2023-05-10T23:53:48.820Z,13.98
2023-05-10T23:56:15.307Z,13.98
2023-05-10T23:58:42.594Z,13.98
